Weather History for Willmar, MN

Change the Weather History Date:

Thursday, June 12, 2014

  Actual Average (KLJF) Record (KLJF)
Temperature  
Mean Temperature 60 °F -  
Max Temperature 66 °F 80 °F 99 °F (1956)
Min Temperature 53 °F 56 °F 41 °F (1985)
Degree Days  
Heating Degree Days 6    
Growing Degree Days 10 (Base 50)    
Moisture  
Dew Point 46 °F    
Average Humidity 66    
Maximum Humidity 88    
Minimum Humidity 37    
Precipitation  
Precipitation 0.00 in - - ()
Sea Level Pressure  
Sea Level Pressure 29.92 in    
Wind  
Wind Speed 20 mph (NW)    
Max Wind Speed 29 mph    
Max Gust Speed 37 mph    
Visibility 10 miles    
Events      
Averages and records for this station are not official NWS values.
T = Trace of Precipitation, MM = Missing Value Source: NWS Daily Summary

Daily Weather History Graph

Daily Weather History Graph

Search for Another Location

Airport:

Trip Planner

Search our weather history database for the weather conditions in past years. The results will help you decide how hot, cold, wet, or windy it might be!

Date:

Astronomy

Jun. 12, 2014 Rise Set
Actual Time 5:32 AM CDT 9:08 PM CDT
Civil Twilight 4:55 AM CDT 9:45 PM CDT
Nautical Twilight 4:06 AM CDT 10:35 PM CDT
Astronomical Twilight 3:00 AM CDT 11:40 PM CDT
Moon 8:37 PM CDT (6/12) 5:18 AM CDT (6/12)
Length of Visible Light 16h 49m
Length of Day
15h 35m
Full, 100% of the Moon is Illuminated
Jun 12
Full
Jun 12
Full
Jun 19
Last Quarter
Jun 27
New
Jul 5
First Quarter

Hourly Weather History & Observations

Time (CDT) Temp. Dew Point Humidity Pressure Visibility Wind Dir Wind Speed Gust Speed Precip Events Conditions
12:15 AM 60.8 °F 57.2 °F 88% 29.72 in 10.0 mi WNW 13.8 mph - N/A   Mostly Cloudy
12:35 AM 60.8 °F 55.4 °F 82% 29.73 in 10.0 mi WNW 18.4 mph 23.0 mph N/A   Mostly Cloudy
12:55 AM 60.8 °F 55.4 °F 82% 29.73 in 10.0 mi WNW 19.6 mph 28.8 mph N/A   Mostly Cloudy
1:15 AM 57.2 °F 51.8 °F 82% 29.75 in 10.0 mi WNW 20.7 mph 31.1 mph N/A   Overcast
1:35 AM 57.2 °F 51.8 °F 82% 29.77 in 10.0 mi NW 21.9 mph 28.8 mph N/A   Overcast
1:55 AM 55.4 °F 51.8 °F 88% 29.80 in 10.0 mi NW 23.0 mph 28.8 mph N/A   Overcast
2:15 AM 57.2 °F 51.8 °F 82% 29.81 in 10.0 mi WNW 20.7 mph 28.8 mph N/A   Overcast
2:35 AM 57.2 °F 51.8 °F 82% 29.81 in 10.0 mi WNW 19.6 mph 25.3 mph N/A   Overcast
2:55 AM 57.2 °F 50.0 °F 77% 29.82 in 10.0 mi WNW 20.7 mph 27.6 mph N/A   Overcast
3:15 AM 57.2 °F 50.0 °F 77% 29.82 in 10.0 mi WNW 20.7 mph 24.2 mph N/A   Mostly Cloudy
3:35 AM 55.4 °F 50.0 °F 82% 29.82 in 10.0 mi WNW 21.9 mph 25.3 mph N/A   Mostly Cloudy
3:55 AM 55.4 °F 48.2 °F 77% 29.83 in 10.0 mi WNW 18.4 mph - N/A   Scattered Clouds
4:15 AM 53.6 °F 48.2 °F 82% 29.82 in 10.0 mi NW 19.6 mph 27.6 mph N/A   Clear
4:35 AM 53.6 °F 48.2 °F 82% 29.82 in 10.0 mi WNW 19.6 mph 26.5 mph N/A   Clear
4:55 AM 53.6 °F 48.2 °F 82% 29.82 in 10.0 mi WNW 20.7 mph 33.4 mph N/A   Scattered Clouds
5:15 AM 53.6 °F 48.2 °F 82% 29.83 in 10.0 mi NW 20.7 mph 28.8 mph N/A   Overcast
5:35 AM 53.6 °F 48.2 °F 82% 29.83 in 10.0 mi NW 26.5 mph 36.8 mph N/A   Overcast
5:55 AM 53.6 °F 46.4 °F 77% 29.84 in 10.0 mi NW 25.3 mph 31.1 mph N/A   Scattered Clouds
6:15 AM 53.6 °F 46.4 °F 77% 29.86 in 10.0 mi NW 20.7 mph 29.9 mph N/A   Scattered Clouds
6:35 AM 53.6 °F 46.4 °F 77% 29.88 in 10.0 mi NW 18.4 mph 31.1 mph N/A   Mostly Cloudy
6:55 AM 53.6 °F 46.4 °F 77% 29.88 in 10.0 mi NW 18.4 mph 27.6 mph N/A   Scattered Clouds
7:15 AM 53.6 °F 46.4 °F 77% 29.89 in 10.0 mi WNW 19.6 mph 26.5 mph N/A   Scattered Clouds
7:35 AM 53.6 °F 46.4 °F 77% 29.90 in 10.0 mi WNW 20.7 mph 24.2 mph N/A   Scattered Clouds
7:55 AM 55.4 °F 46.4 °F 72% 29.91 in 10.0 mi NW 21.9 mph 26.5 mph N/A   Scattered Clouds
8:15 AM 55.4 °F 46.4 °F 72% 29.92 in 10.0 mi WNW 23.0 mph 28.8 mph N/A   Scattered Clouds
8:35 AM 55.4 °F 46.4 °F 72% 29.92 in 10.0 mi WNW 23.0 mph 28.8 mph N/A   Scattered Clouds
9:35 AM 55.4 °F 46.4 °F 72% 29.93 in 10.0 mi NW 26.5 mph 32.2 mph N/A   Scattered Clouds
9:55 AM 55.4 °F 44.6 °F 67% 29.94 in 10.0 mi NW 26.5 mph 33.4 mph N/A   Scattered Clouds
10:15 AM 55.4 °F 44.6 °F 67% 29.95 in 10.0 mi NW 28.8 mph 33.4 mph N/A   Scattered Clouds
10:35 AM 53.6 °F 44.6 °F 72% 29.95 in 10.0 mi WNW 23.0 mph 34.5 mph N/A   Scattered Clouds
10:55 AM 53.6 °F 44.6 °F 72% 29.95 in 10.0 mi NW 26.5 mph 31.1 mph N/A   Scattered Clouds
11:15 AM 53.6 °F 44.6 °F 72% 29.95 in 10.0 mi NW 25.3 mph 33.4 mph N/A   Scattered Clouds
11:35 AM 53.6 °F 44.6 °F 72% 29.95 in 10.0 mi NW 25.3 mph 35.7 mph N/A   Scattered Clouds
11:55 AM 55.4 °F 44.6 °F 67% 29.96 in 10.0 mi NW 28.8 mph 36.8 mph N/A   Scattered Clouds
12:15 PM 55.4 °F 46.4 °F 72% 29.96 in 10.0 mi NW 24.2 mph 34.5 mph N/A   Scattered Clouds
12:35 PM 57.2 °F 46.4 °F 67% 29.95 in 10.0 mi NW 27.6 mph 34.5 mph N/A   Clear
12:55 PM 57.2 °F 46.4 °F 67% 29.96 in 10.0 mi NW 27.6 mph 34.5 mph N/A   Clear
1:15 PM 57.2 °F 46.4 °F 67% 29.96 in 10.0 mi NW 27.6 mph 35.7 mph N/A   Scattered Clouds
1:35 PM 59.0 °F 46.4 °F 63% 29.97 in 10.0 mi NW 21.9 mph 36.8 mph N/A   Clear
1:55 PM 59.0 °F 46.4 °F 63% 29.97 in 10.0 mi NW 24.2 mph 32.2 mph N/A   Scattered Clouds
2:15 PM 60.8 °F 46.4 °F 59% 29.97 in 10.0 mi NW 24.2 mph 29.9 mph N/A   Clear
2:35 PM 60.8 °F 46.4 °F 59% 29.97 in 10.0 mi NNW 23.0 mph 27.6 mph N/A   Clear
2:55 PM 60.8 °F 46.4 °F 59% 29.97 in 10.0 mi NW 24.2 mph 32.2 mph N/A   Scattered Clouds
3:15 PM 62.6 °F 46.4 °F 55% 29.97 in 10.0 mi NNW 21.9 mph 32.2 mph N/A   Clear
3:34 PM 62.6 °F 46.4 °F 55% 29.97 in 10.0 mi NW 24.2 mph 29.9 mph N/A   Clear
3:55 PM 64.4 °F 46.4 °F 52% 29.97 in 10.0 mi NW 26.5 mph 32.2 mph N/A   Clear
4:15 PM 64.4 °F 46.4 °F 52% 29.96 in 10.0 mi NW 26.5 mph 33.4 mph N/A   Clear
4:35 PM 64.4 °F 44.6 °F 49% 29.96 in 10.0 mi NW 28.8 mph 32.2 mph N/A   Scattered Clouds
4:55 PM 66.2 °F 46.4 °F 49% 29.96 in 10.0 mi NW 21.9 mph 32.2 mph N/A   Scattered Clouds
5:15 PM 66.2 °F 44.6 °F 46% 29.96 in 10.0 mi NNW 23.0 mph 28.8 mph N/A   Clear
5:35 PM 66.2 °F 42.8 °F 43% 29.97 in 10.0 mi NNW 24.2 mph 29.9 mph N/A   Clear
5:55 PM 66.2 °F 42.8 °F 43% 29.97 in 10.0 mi NW 19.6 mph 28.8 mph N/A   Clear
6:15 PM 66.2 °F 41.0 °F 40% 29.98 in 10.0 mi NNW 21.9 mph 26.5 mph N/A   Clear
6:35 PM 66.2 °F 42.8 °F 43% 29.98 in 10.0 mi NNW 17.3 mph 24.2 mph N/A   Clear
6:55 PM 66.2 °F 41.0 °F 40% 29.98 in 10.0 mi NW 20.7 mph 26.5 mph N/A   Clear
7:15 PM 66.2 °F 41.0 °F 40% 29.98 in 10.0 mi NW 20.7 mph - N/A   Clear
7:34 PM 64.4 °F 39.2 °F 40% 29.99 in 10.0 mi NNW 19.6 mph 23.0 mph N/A   Clear
7:55 PM 64.4 °F 37.4 °F 37% 29.99 in 10.0 mi NNW 15.0 mph 21.9 mph N/A   Clear
8:15 PM 64.4 °F 37.4 °F 37% 30.00 in 10.0 mi NNW 13.8 mph - N/A   Clear
8:35 PM 62.6 °F 39.2 °F 42% 30.00 in 10.0 mi NW 9.2 mph - N/A   Clear
8:55 PM 60.8 °F 42.8 °F 52% 30.01 in 10.0 mi NW 8.1 mph - N/A   Clear
9:15 PM 59.0 °F 41.0 °F 51% 30.01 in 10.0 mi NW 6.9 mph - N/A   Clear
9:35 PM 59.0 °F 42.8 °F 55% 30.02 in 10.0 mi WNW 4.6 mph - N/A   Clear
9:55 PM 55.4 °F 44.6 °F 67% 30.02 in 10.0 mi WNW 4.6 mph - N/A   Clear
10:35 PM 55.4 °F 44.6 °F 67% 30.03 in 10.0 mi WNW 3.5 mph - N/A   Clear
10:55 PM 55.4 °F 44.6 °F 67% 30.03 in 10.0 mi West 3.5 mph - N/A   Clear
11:15 PM 55.4 °F 42.8 °F 63% 30.03 in 10.0 mi Calm Calm - N/A   Clear
11:35 PM 55.4 °F 42.8 °F 63% 30.03 in 10.0 mi Calm Calm - N/A   Clear
11:55 PM 53.6 °F 44.6 °F 72% 30.03 in 10.0 mi Calm Calm - N/A   Clear